If you wish to contribute or participate in the discussions about articles you are invited to join SKYbrary as a registered user

 Actions

Svalbard/Longyear

From SKYbrary Wiki

ENSB
Airport
ICAO: ENSB
Summary
Name Svalbard/Longyear
Region Europe
Territory Norway NO.gif
Location Svalbard, Spitzbergen
Serving
Coordinates 78° 14' 40.68" N, 15° 29' 38.55" E
Runways
Designator Length Width Surface ROPS
10/28 2319 m7,608.268 ft
45 m147.638 ft
ASP yes/yes


METAR
Observation ENSB 211620Z 22020KT 9999 -SN DRSN SCT015 BKN030 M03/M07 Q1004 RMK WIND 1400FT 23027KT
Station Svalbard Lufthavn
Date/Time 21 February 2019 16:20:00
Wind direction 220°
Wind speed 20 kts
Lowest cloud amount scattered clouds
Temperature
Dew point
Humidity 73%
QNH 1004 hPa
Weather condition light drifting


Svalbard Airport

ICAO: ENSB IATA: LYR

Description

Svalbard Airport, Longyear is the main airport serving Svalbard in Norway. It is located 1.6 nm2,963.2 m
2.963 km
9,721.785 ft
northwest of Longyearbyen, and it is the northernmost airport in the world with public scheduled flights.

Climatology

Tundra climate (Köppen climate classification ET) - average temperature below 10°C50 °F
283.15 K
509.67 °R
in all twelve months of the year with very little precipitation

Maps

Terrain

Loading map...

Airport Layout

Loading map...


Accidents & Serious Incidents at or in vicinity of ENSB